Palisades, WA (98845)

5:36 AM PDT on September 19, 2014 (GMT -0700)
KWAEPHRA4 | Change Station
CLOSE
Current Station
Personal Weather Station
Location: Ephrata, WA
Elevation: 1286 ft
Nearby Weather Stations

Elev 1286 ft 47.25 °N, 119.71 °W | Updated 1 second ago

Mostly Cloudy
Mostly Cloudy
65.6 °F
Feels Like 65.6 °F
N
0.0
Wind Variable Wind from NW
Gusts 5.0 mph

Today
High -- | Low -- °F
--% Chance of Precip.
Yesterday
High -- | Low -- °F
Precip. -- in
6:41 AM 7:02 PM
Waning Crescent, 19% visible
Pressure 29.89 in
Visibility 10.0 miles
Clouds Clear
Dew Point 54 °F
Humidity 65%
Rainfall 0.00 in
Snow Depth 0 in , 0 in , 0 in
UV 0 out of 12
Pollen 2.90 out of 12
Air Quality Not available.
Flu Activity Not available.
METAR KEPH 191153Z AUTO 19008KT 10SM CLR 17/09 A2991 RMK AO2 SLP120 T01670094 10206 20161 51016

More Conditions Fewer Conditions

Pressure 29.89 in
Visibility 10.0 miles
Clouds Clear
Dew Point 54 °F
Humidity 65%
Rainfall 0.00 in
Snow Depth 0 in , 0 in , 0 in
UV 0 out of 12
Pollen 2.90 out of 12
Air Quality Not available.
Flu Activity Not available.
METAR KEPH 191153Z AUTO 19008KT 10SM CLR 17/09 A2991 RMK AO2 SLP120 T01670094 10206 20161 51016

More Conditions Fewer Conditions

10-Day Weather Forecast

Almanac

Astronomy

Sep. 19, 2014 Rise Set
Actual Time 6:41 AM PDT 7:02 PM PDT
Civil Twilight 6:11 AM PDT 7:33 PM PDT
Nautical Twilight 5:34 AM PDT 8:09 PM PDT
Astronomical Twilight 4:57 AM PDT 8:47 PM PDT
Moon 2:17 AM PDT 4:46 PM PDT
Length of Visible Light 13h 22m
Length of Day
12h 20m
Tomorrow will be 3m 23s shorter.
Waning Crescent, 19% of the Moon is Illuminated
Today
Waning Crescent
Sep 24
New
Oct 1
First Quarter
Oct 8
Full
Oct 15
Last Quarter

Today's Extremes

State Highs State Lows

Community

WunderPhotos

Upload Photos

1,754,602 photos uploaded!

Nearby

Snow Depth

Station Depth Elevation
Mount Gardner 0 in 3000 ft
Lone Pine 0 in 3800 ft
Dungeness 0 in 4100 ft
Blewett Pass 0 in 4270 ft
Alpine Meadows 0 in 3500 ft

Earthquake Activity

City Distance Mag. Time & Date
No recent earthquake activity has been reported nearby.
Minimum magnitude displayed is 2.5.

Coastal Water Temperatures

Place Temperature
No Stations Reporting

Nearby Weather Stations